Home   Weather   Jefferson   Past weeks
Flag for USA

Past Weather in Jefferson, New Jersey, USA — July 2019

Currently: 65 °F. Passing clouds. (Weather station: Philadelphia International Airport, USA). See more current weather

July 2019 Weather in Jefferson — Graph

°F

High & Low Weather Summary for July 2019

 TemperatureHumidityPressure
High98 °F (Jul 21, 4:54 pm)94% (Jul 4, 3:54 am)30.29 "Hg (Jul 4, 3:54 am)
Low65 °F (Jul 1, 4:54 am)31% (Jul 25, 5:54 pm)29.70 "Hg (Jul 22, 4:58 pm)
Average80 °F68%29.96 "Hg
* Reported Jul 1 12:54 am — Jul 31 11:54 pm, Jefferson. Weather by CustomWeather, © 2021

Note: Actual official high and low records may vary slightly from our data, if they occured in-between our weather recording intervals... More about our weather records

Jefferson Weather History for July 1, 2019

Scroll right to see more
 ConditionsComfort  
Time TempWeatherWind HumidityBarometerVisibility
12:54 am
Mon, Jul 1
70 °FClear.8 mph51%29.91 "Hg10 mi
1:54 am69 °FClear.7 mph53%29.92 "Hg10 mi
2:54 am69 °FClear.7 mph53%29.93 "Hg10 mi
3:54 am66 °FClear.7 mph61%29.93 "Hg10 mi
4:54 am65 °FClear.8 mph63%29.93 "Hg10 mi
5:54 am65 °FSunny.7 mph63%29.93 "Hg10 mi
6:54 am67 °FSunny.7 mph61%29.96 "Hg10 mi
7:54 am68 °FPassing clouds.9 mph61%29.96 "Hg10 mi
8:54 am72 °FPassing clouds.5 mph55%29.97 "Hg10 mi
9:54 am75 °FPassing clouds.5 mph52%29.98 "Hg10 mi
10:54 am79 °FPassing clouds.No wind45%29.98 "Hg10 mi
11:54 am78 °FPassing clouds.6 mph46%29.97 "Hg10 mi
12:54 pm80 °FScattered clouds.No wind42%29.96 "Hg10 mi
1:54 pm82 °FScattered clouds.8 mph38%29.95 "Hg10 mi
2:54 pm83 °FScattered clouds.8 mph37%29.93 "Hg10 mi
3:54 pm84 °FScattered clouds.12 mph35%29.93 "Hg10 mi
4:54 pm84 °FPartly sunny.12 mph37%29.92 "Hg10 mi
5:54 pm84 °FPartly sunny.9 mph37%29.91 "Hg10 mi
6:54 pm83 °FPartly sunny.12 mph40%29.90 "Hg10 mi
7:54 pm81 °FScattered clouds.12 mph44%29.92 "Hg10 mi
8:54 pm80 °FPassing clouds.10 mph45%29.92 "Hg10 mi
9:54 pm79 °FPassing clouds.12 mph50%29.93 "Hg10 mi
10:54 pm77 °FPassing clouds.9 mph58%29.93 "Hg10 mi
11:54 pm74 °FPassing clouds.8 mph67%29.93 "Hg10 mi
Weather by CustomWeather, © 2021

See weather overview